KMCB/MCB METAR and TAF weather

Enter ICAO airport designator
Station Type Date Time Source
KMCB METAR 2021/09/24 06:53 UTC NOAA

KMCB 240653Z AUTO 01003KT 10SM CLR 16/12 A3008 RMK AO2 SLP180 T01560122


Station Type Date Time Source
KMCB Decoded METAR 2021/09/24 06:53 UTC NOAA

MCCOMB/PIKE COUNTY AIRPORT, MS, United States (KMCB) 31-11N 90-28W 124M
Sep 24, 2021 - 02:53 AM EDT / 2021.09.24 0653 UTC
Wind: from the N (010 degrees) at 3 MPH (3 KT):0
Visibility: 10 mile(s):0
Sky conditions: clear
Temperature: 60.1 F (15.6 C)
Dew Point: 54.0 F (12.2 C)
Relative Humidity: 80%
Pressure (altimeter): 30.08 in. Hg (1018 hPa)
ob: KMCB 240653Z AUTO 01003KT 10SM CLR 16/12 A3008 RMK AO2 SLP180 T01560122
cycle: 7

Station Type Date Time Source
KMCB TAF 2021/09/24 06:24 UTC NOAA

TAF KMCB 240522Z 2406/2506 00000KT P6SM SKC

Example: see airport list